createdAt,value
2019-02-25T00:00:57.416Z,7.05
2019-02-25T00:01:57.385Z,6.77
2019-02-25T00:02:57.383Z,6.71
2019-02-25T00:03:57.385Z,6.58
2019-02-25T00:04:57.356Z,6.61
2019-02-25T00:05:57.357Z,6.46
2019-02-25T00:06:57.386Z,6.43
2019-02-25T00:07:57.330Z,6.21
2019-02-25T00:08:57.342Z,6.22
2019-02-25T00:09:57.302Z,6.25
2019-02-25T00:10:57.313Z,6.08
2019-02-25T00:11:57.302Z,6.17
2019-02-25T00:12:57.295Z,6.11
2019-02-25T00:13:57.353Z,6.09
2019-02-25T00:14:57.272Z,6.01
2019-02-25T00:15:57.263Z,5.89
2019-02-25T00:16:57.238Z,5.79
2019-02-25T00:17:57.220Z,5.75
2019-02-25T00:18:57.219Z,5.74
2019-02-25T00:19:57.229Z,5.86
2019-02-25T00:20:57.243Z,5.82
2019-02-25T00:21:57.173Z,5.97
2019-02-25T00:22:57.166Z,5.93
2019-02-25T00:23:57.162Z,6.06
2019-02-25T00:24:57.163Z,6.14
2019-02-25T00:25:57.151Z,6.19
2019-02-25T00:26:57.124Z,6.25
2019-02-25T00:27:57.108Z,6.33
2019-02-25T00:28:57.095Z,6.36
2019-02-25T00:29:57.170Z,6.41
2019-02-25T00:30:57.084Z,6.54
2019-02-25T00:31:57.067Z,6.52
2019-02-25T00:32:57.058Z,6.51
2019-02-25T00:33:57.039Z,6.49
2019-02-25T00:34:57.064Z,6.54
2019-02-25T00:35:57.021Z,6.55
2019-02-25T00:36:57.074Z,6.54
2019-02-25T00:37:57.013Z,6.54
2019-02-25T00:38:57.013Z,6.52
2019-02-25T00:39:56.989Z,6.56
2019-02-25T00:40:56.982Z,6.46
2019-02-25T00:41:56.959Z,6.58
2019-02-25T00:42:56.991Z,6.46
2019-02-25T00:43:56.951Z,6.52
2019-02-25T00:44:56.961Z,6.59
2019-02-25T00:45:56.918Z,6.56
2019-02-25T00:46:56.907Z,6.66
2019-02-25T00:47:56.918Z,6.62
2019-02-25T00:48:56.896Z,6.70
2019-02-25T00:49:56.889Z,6.67
2019-02-25T00:50:56.885Z,6.64
2019-02-25T00:51:56.856Z,6.61
2019-02-25T00:52:56.851Z,6.66
2019-02-25T00:53:56.832Z,6.64
2019-02-25T00:54:56.835Z,6.77
2019-02-25T00:55:56.815Z,6.61
2019-02-25T00:56:56.830Z,6.69
2019-02-25T00:57:56.797Z,6.64
2019-02-25T00:58:56.776Z,6.66
2019-02-25T00:59:56.775Z,6.61
2019-02-25T01:00:56.767Z,6.64
2019-02-25T01:01:56.752Z,6.67
2019-02-25T01:02:56.783Z,6.58
2019-02-25T01:03:56.733Z,6.66
2019-02-25T01:04:56.737Z,6.59
2019-02-25T01:05:56.701Z,6.54
2019-02-25T01:06:56.702Z,6.54
2019-02-25T01:07:56.762Z,6.37
2019-02-25T01:08:56.683Z,6.38
2019-02-25T01:09:56.684Z,6.41
2019-02-25T01:10:56.655Z,6.30
2019-02-25T01:11:56.643Z,6.37
2019-02-25T01:12:56.725Z,6.25
2019-02-25T01:13:56.624Z,6.40
2019-02-25T01:14:56.627Z,6.30
2019-02-25T01:15:56.598Z,6.34
2019-02-25T01:16:56.593Z,6.22
2019-02-25T01:17:56.621Z,6.30
2019-02-25T01:18:56.589Z,6.27
2019-02-25T01:19:56.593Z,6.21
2019-02-25T01:20:56.559Z,6.19
2019-02-25T01:21:56.541Z,6.27
2019-02-25T01:22:56.519Z,6.19
2019-02-25T01:23:56.517Z,6.17
2019-02-25T01:24:56.594Z,6.11
2019-02-25T01:25:56.512Z,6.06
2019-02-25T01:26:56.487Z,6.01
2019-02-25T01:27:56.468Z,5.93
2019-02-25T01:28:56.475Z,5.85
2019-02-25T01:29:56.454Z,5.91
2019-02-25T01:30:56.433Z,5.79
2019-02-25T01:31:56.526Z,5.72
2019-02-25T01:32:56.482Z,5.56
2019-02-25T01:33:56.403Z,5.53
2019-02-25T01:34:56.396Z,5.45
2019-02-25T01:35:56.437Z,5.31
2019-02-25T01:36:56.370Z,5.28
2019-02-25T01:37:56.371Z,5.30
2019-02-25T01:38:56.407Z,5.20
2019-02-25T01:39:56.349Z,5.13
2019-02-25T01:40:56.324Z,5.02
2019-02-25T01:41:56.316Z,5.03
2019-02-25T01:42:56.305Z,4.99
2019-02-25T01:43:56.309Z,5.00
2019-02-25T01:44:56.348Z,4.92
2019-02-25T01:45:56.264Z,4.86
2019-02-25T01:46:56.262Z,4.84
2019-02-25T01:47:56.250Z,4.77
2019-02-25T01:48:56.247Z,4.78
2019-02-25T01:49:56.251Z,4.77
2019-02-25T01:50:56.217Z,4.70
2019-02-25T01:51:56.229Z,4.75
2019-02-25T01:52:56.203Z,4.66
2019-02-25T01:53:56.215Z,4.59
2019-02-25T01:54:56.245Z,4.45
2019-02-25T01:55:56.167Z,4.36
2019-02-25T01:56:56.159Z,4.27
2019-02-25T01:57:56.131Z,4.27
2019-02-25T01:58:56.173Z,4.24
2019-02-25T01:59:56.116Z,4.26
2019-02-25T02:00:56.099Z,4.30
2019-02-25T02:01:56.163Z,4.24
2019-02-25T02:02:56.104Z,4.34
2019-02-25T02:03:56.076Z,4.32
2019-02-25T02:04:56.071Z,4.18
2019-02-25T02:05:56.071Z,4.12
2019-02-25T02:06:56.055Z,4.15
2019-02-25T02:07:56.043Z,4.08
2019-02-25T02:08:56.057Z,4.04
2019-02-25T02:09:56.018Z,4.06
2019-02-25T02:10:56.011Z,4.08
2019-02-25T02:11:55.994Z,4.08
2019-02-25T02:12:55.997Z,4.09
2019-02-25T02:13:55.990Z,4.02
2019-02-25T02:14:55.993Z,4.06
2019-02-25T02:15:55.983Z,4.05
2019-02-25T02:16:55.944Z,4.05
2019-02-25T02:17:55.942Z,3.97
2019-02-25T02:18:55.971Z,3.91
2019-02-25T02:19:55.911Z,3.94
2019-02-25T02:20:55.917Z,3.86
2019-02-25T02:21:55.881Z,3.87
2019-02-25T02:22:55.913Z,3.84
2019-02-25T02:23:55.874Z,3.94
2019-02-25T02:24:55.867Z,3.86
2019-02-25T02:25:55.853Z,3.86
2019-02-25T02:26:55.831Z,3.88
2019-02-25T02:27:55.828Z,3.94
2019-02-25T02:28:55.816Z,3.88
2019-02-25T02:29:55.860Z,3.83
2019-02-25T02:30:55.800Z,3.70
2019-02-25T02:31:55.786Z,3.70
2019-02-25T02:32:55.777Z,3.66
2019-02-25T02:33:55.757Z,3.70
2019-02-25T02:34:55.746Z,3.72
2019-02-25T02:35:55.743Z,3.70
2019-02-25T02:36:55.777Z,3.65
2019-02-25T02:37:55.719Z,3.69
2019-02-25T02:38:55.708Z,3.58
2019-02-25T02:39:55.702Z,3.52
2019-02-25T02:40:55.701Z,3.57
2019-02-25T02:41:55.669Z,3.62
2019-02-25T02:42:55.663Z,3.57
2019-02-25T02:43:55.725Z,3.57
2019-02-25T02:44:55.629Z,3.58
2019-02-25T02:45:55.644Z,3.62
2019-02-25T02:46:55.617Z,3.65
2019-02-25T02:47:55.601Z,3.62
2019-02-25T02:48:55.597Z,3.60
2019-02-25T02:49:55.693Z,3.66
2019-02-25T02:50:55.570Z,3.66
2019-02-25T02:51:55.568Z,3.58
2019-02-25T02:52:55.552Z,3.54
2019-02-25T02:53:55.572Z,3.51
2019-02-25T02:54:55.540Z,3.60
2019-02-25T02:55:55.551Z,3.57
2019-02-25T02:56:55.501Z,3.47
2019-02-25T02:57:55.521Z,3.42
2019-02-25T02:58:55.511Z,3.47
2019-02-25T02:59:55.470Z,3.47
2019-02-25T03:00:55.481Z,3.43
2019-02-25T03:01:55.459Z,3.45
2019-02-25T03:02:55.443Z,3.39
2019-02-25T03:03:55.521Z,3.42
2019-02-25T03:04:55.434Z,3.33
2019-02-25T03:05:55.416Z,3.39
2019-02-25T03:06:55.402Z,3.28
2019-02-25T03:07:55.405Z,3.29
2019-02-25T03:08:55.372Z,3.21
2019-02-25T03:09:55.378Z,3.26
2019-02-25T03:10:55.372Z,3.24
2019-02-25T03:11:55.349Z,3.28
2019-02-25T03:12:55.362Z,3.20
2019-02-25T03:13:55.316Z,3.15
2019-02-25T03:14:55.306Z,3.17
2019-02-25T03:15:55.328Z,3.11
2019-02-25T03:16:55.282Z,3.13
2019-02-25T03:17:55.315Z,3.15
2019-02-25T03:18:55.418Z,3.14
2019-02-25T03:19:55.274Z,3.23
2019-02-25T03:20:55.274Z,3.23
2019-02-25T03:21:55.234Z,3.20
2019-02-25T03:22:55.246Z,3.17
2019-02-25T03:23:55.226Z,3.08
2019-02-25T03:24:55.211Z,3.03
2019-02-25T03:25:55.210Z,3.06
2019-02-25T03:26:55.180Z,3.14
2019-02-25T03:27:55.272Z,3.05
2019-02-25T03:28:55.167Z,3.08
2019-02-25T03:29:55.168Z,3.11
2019-02-25T03:30:55.151Z,3.11
2019-02-25T03:31:55.140Z,3.02
2019-02-25T03:32:55.129Z,3.05
2019-02-25T03:33:55.127Z,3.10
2019-02-25T03:34:55.196Z,3.05
2019-02-25T03:35:55.093Z,3.10
2019-02-25T03:36:55.075Z,3.29
2019-02-25T03:37:55.078Z,3.33
2019-02-25T03:38:55.073Z,3.52
2019-02-25T03:39:55.043Z,3.88
2019-02-25T03:40:55.069Z,4.08
2019-02-25T03:41:55.031Z,4.27
2019-02-25T03:42:55.013Z,4.42
2019-02-25T03:43:55.007Z,4.52
2019-02-25T03:44:55.025Z,4.65
2019-02-25T03:45:54.981Z,4.69
2019-02-25T03:46:55.001Z,4.82
2019-02-25T03:47:54.962Z,4.85
2019-02-25T03:48:54.949Z,4.89
2019-02-25T03:49:54.947Z,4.88
2019-02-25T03:50:54.944Z,4.94
2019-02-25T03:51:54.924Z,4.82
2019-02-25T03:52:54.961Z,4.92
2019-02-25T03:53:54.888Z,4.91
2019-02-25T03:54:54.896Z,4.89
2019-02-25T03:55:54.882Z,4.77
2019-02-25T03:56:54.862Z,4.86
2019-02-25T03:57:54.849Z,4.80
2019-02-25T03:58:54.854Z,4.75
2019-02-25T03:59:54.868Z,4.73
2019-02-25T04:00:54.826Z,4.70
2019-02-25T04:01:54.822Z,4.65
2019-02-25T04:02:54.853Z,4.65
2019-02-25T04:03:54.808Z,4.59
2019-02-25T04:04:54.781Z,4.48
2019-02-25T04:05:54.805Z,4.32
2019-02-25T04:06:54.762Z,4.23
2019-02-25T04:07:54.740Z,4.20
2019-02-25T04:08:54.727Z,4.00
2019-02-25T04:09:54.761Z,3.96
2019-02-25T04:10:54.715Z,4.02
2019-02-25T04:11:54.714Z,3.93
2019-02-25T04:12:54.784Z,4.02
2019-02-25T04:13:54.697Z,4.09
2019-02-25T04:14:54.696Z,4.05
2019-02-25T04:15:54.654Z,4.04
2019-02-25T04:16:54.656Z,4.11
2019-02-25T04:17:54.690Z,4.14
2019-02-25T04:18:54.625Z,4.15
2019-02-25T04:19:54.610Z,4.12
2019-02-25T04:20:54.608Z,4.15
2019-02-25T04:21:54.601Z,4.09
2019-02-25T04:22:54.580Z,4.09
2019-02-25T04:23:54.569Z,4.04
2019-02-25T04:24:54.573Z,4.08
2019-02-25T04:25:54.559Z,4.09
2019-02-25T04:26:55.698Z,3.90
2019-02-25T04:27:54.528Z,3.78
2019-02-25T04:28:54.570Z,3.62
2019-02-25T04:29:54.505Z,3.66
2019-02-25T04:30:54.508Z,3.54
2019-02-25T04:31:54.495Z,3.45
2019-02-25T04:32:54.493Z,3.39
2019-02-25T04:33:54.474Z,3.35
2019-02-25T04:34:54.465Z,3.31
2019-02-25T04:35:54.449Z,3.29
2019-02-25T04:36:54.489Z,3.20
2019-02-25T04:37:54.453Z,3.26
2019-02-25T04:38:54.527Z,3.31
2019-02-25T04:39:54.411Z,3.18
2019-02-25T04:40:54.391Z,3.17
2019-02-25T04:41:54.380Z,3.08
2019-02-25T04:42:54.381Z,3.08
2019-02-25T04:43:54.355Z,3.11
2019-02-25T04:44:54.345Z,3.06
2019-02-25T04:45:54.444Z,2.99
2019-02-25T04:46:54.331Z,2.96
2019-02-25T04:47:54.316Z,2.97
2019-02-25T04:48:54.324Z,3.10
2019-02-25T04:49:54.292Z,3.08
2019-02-25T04:50:54.280Z,3.10
2019-02-25T04:51:54.283Z,3.17
2019-02-25T04:52:54.356Z,3.03
2019-02-25T04:53:54.290Z,3.08
2019-02-25T04:54:54.246Z,3.18
2019-02-25T04:55:54.235Z,3.17
2019-02-25T04:56:54.241Z,3.21
2019-02-25T04:57:54.210Z,3.18
2019-02-25T04:58:54.190Z,3.18
2019-02-25T04:59:54.203Z,3.17
2019-02-25T05:00:54.235Z,3.18
2019-02-25T05:01:54.182Z,3.20
2019-02-25T05:02:54.158Z,3.35
2019-02-25T05:03:54.157Z,3.39
2019-02-25T05:04:54.125Z,3.39
2019-02-25T05:05:54.139Z,3.57
2019-02-25T05:06:54.114Z,3.48
2019-02-25T05:07:54.112Z,3.51
2019-02-25T05:08:54.158Z,3.65
2019-02-25T05:09:54.092Z,3.61
2019-02-25T05:10:54.095Z,3.70
2019-02-25T05:11:54.063Z,3.68
2019-02-25T05:12:54.061Z,3.72
2019-02-25T05:13:54.046Z,3.78
2019-02-25T05:14:54.038Z,3.84
2019-02-25T05:15:54.012Z,3.87
2019-02-25T05:16:54.016Z,3.80
2019-02-25T05:17:54.010Z,3.87
2019-02-25T05:18:54.065Z,3.87
2019-02-25T05:19:53.989Z,3.80
2019-02-25T05:20:54.038Z,3.79
2019-02-25T05:21:53.951Z,3.78
2019-02-25T05:22:53.941Z,3.70
2019-02-25T05:23:53.940Z,3.75
2019-02-25T05:24:53.962Z,3.79
2019-02-25T05:25:53.917Z,3.88
2019-02-25T05:26:53.898Z,3.79
2019-02-25T05:27:53.887Z,3.94
2019-02-25T05:28:53.899Z,3.96
2019-02-25T05:29:53.861Z,3.87
2019-02-25T05:30:53.952Z,3.87
2019-02-25T05:31:53.852Z,3.88
2019-02-25T05:32:53.840Z,3.79
2019-02-25T05:33:53.835Z,3.97
2019-02-25T05:34:53.823Z,3.91
2019-02-25T05:35:53.801Z,3.98
2019-02-25T05:36:53.791Z,3.88
2019-02-25T05:37:53.845Z,3.91
2019-02-25T05:38:53.796Z,3.88
2019-02-25T05:39:53.768Z,3.88
2019-02-25T05:40:53.754Z,4.00
2019-02-25T05:41:53.749Z,3.94
2019-02-25T05:42:53.724Z,3.98
2019-02-25T05:43:53.751Z,4.00
2019-02-25T05:44:53.700Z,3.98
2019-02-25T05:45:53.699Z,3.97
2019-02-25T05:46:53.686Z,4.00
2019-02-25T05:47:53.694Z,3.98
2019-02-25T05:48:53.664Z,4.02
2019-02-25T05:49:53.694Z,4.06
2019-02-25T05:50:53.639Z,4.16
2019-02-25T05:51:53.630Z,4.06
2019-02-25T05:52:53.632Z,4.06
2019-02-25T05:53:53.610Z,4.22
2019-02-25T05:54:53.594Z,4.22
2019-02-25T05:55:53.615Z,4.23
2019-02-25T05:56:53.595Z,4.27
2019-02-25T05:57:53.573Z,4.27
2019-02-25T05:58:53.573Z,4.24
2019-02-25T05:59:53.547Z,4.20
2019-02-25T06:00:53.539Z,4.16
2019-02-25T06:01:53.525Z,4.14
2019-02-25T06:02:53.528Z,4.14
2019-02-25T06:03:53.498Z,4.22
2019-02-25T06:04:53.563Z,4.20
2019-02-25T06:05:53.507Z,4.02
2019-02-25T06:06:53.481Z,4.20
2019-02-25T06:07:53.463Z,4.06
2019-02-25T06:08:53.448Z,4.16
2019-02-25T06:09:53.492Z,4.15
2019-02-25T06:10:53.428Z,4.16
2019-02-25T06:11:53.434Z,4.15
2019-02-25T06:12:53.410Z,4.26
2019-02-25T06:13:53.387Z,4.18
2019-02-25T06:14:53.378Z,4.22
2019-02-25T06:15:53.394Z,4.22
2019-02-25T06:16:53.358Z,4.22
2019-02-25T06:17:53.367Z,4.34
2019-02-25T06:18:53.342Z,4.15
2019-02-25T06:19:53.332Z,4.27
2019-02-25T06:20:53.312Z,4.41
2019-02-25T06:21:53.337Z,4.30
2019-02-25T06:22:53.300Z,4.22
2019-02-25T06:23:53.392Z,4.23
2019-02-25T06:24:53.277Z,4.23
2019-02-25T06:25:53.263Z,4.27
2019-02-25T06:26:53.264Z,4.37
2019-02-25T06:27:53.244Z,4.30
2019-02-25T06:28:53.229Z,4.29
2019-02-25T06:29:53.224Z,4.33
2019-02-25T06:30:53.210Z,4.16
2019-02-25T06:31:53.202Z,4.15
2019-02-25T06:32:53.214Z,4.26
2019-02-25T06:33:53.175Z,4.20
2019-02-25T06:34:53.208Z,4.33
2019-02-25T06:35:53.163Z,4.40
2019-02-25T06:36:53.158Z,4.60
2019-02-25T06:37:53.139Z,4.77
2019-02-25T06:38:53.147Z,4.77
2019-02-25T06:39:53.117Z,4.84
2019-02-25T06:40:53.113Z,4.77
2019-02-25T06:41:53.128Z,4.78
2019-02-25T06:42:53.083Z,5.04
2019-02-25T06:43:53.077Z,5.28
2019-02-25T06:44:53.074Z,5.74
2019-02-25T06:45:53.044Z,6.18
2019-02-25T06:46:53.036Z,6.62
2019-02-25T06:47:53.057Z,6.95
2019-02-25T06:48:53.028Z,7.20
2019-02-25T06:49:53.024Z,7.50
2019-02-25T06:50:52.995Z,7.71
2019-02-25T06:51:52.987Z,7.97
2019-02-25T06:52:52.964Z,8.23
2019-02-25T06:53:52.979Z,8.48
2019-02-25T06:54:53.006Z,8.71
2019-02-25T06:55:52.949Z,8.81
2019-02-25T06:56:52.934Z,9.18
2019-02-25T06:57:52.913Z,9.26
2019-02-25T06:58:52.909Z,9.35
2019-02-25T06:59:52.944Z,9.28
2019-02-25T07:00:52.951Z,9.18
2019-02-25T07:01:52.904Z,9.14
2019-02-25T07:02:52.884Z,9.21
2019-02-25T07:03:52.863Z,8.71
2019-02-25T07:04:52.848Z,8.34
2019-02-25T07:05:52.837Z,7.86
2019-02-25T07:06:52.871Z,7.83
2019-02-25T07:07:52.810Z,8.01
2019-02-25T07:08:52.806Z,8.50
2019-02-25T07:09:52.785Z,8.96
2019-02-25T07:10:52.772Z,9.28
2019-02-25T07:11:52.765Z,9.51
2019-02-25T07:12:52.800Z,9.64
2019-02-25T07:13:52.765Z,9.56
2019-02-25T07:14:52.739Z,9.66
2019-02-25T07:15:52.722Z,9.58
2019-02-25T07:16:52.715Z,9.57
2019-02-25T07:17:52.693Z,9.51
2019-02-25T07:18:52.734Z,9.60
2019-02-25T07:19:52.943Z,9.78
2019-02-25T07:20:52.666Z,10.01
2019-02-25T07:21:52.659Z,10.30
2019-02-25T07:22:52.646Z,10.44
2019-02-25T07:23:52.639Z,10.66
2019-02-25T07:24:53.161Z,10.70
2019-02-25T07:25:52.614Z,10.91
2019-02-25T07:26:52.630Z,11.03
2019-02-25T07:27:52.638Z,11.04
2019-02-25T07:28:52.585Z,11.07
2019-02-25T07:29:52.598Z,11.14
2019-02-25T07:30:52.559Z,11.10
2019-02-25T07:31:52.540Z,11.06
2019-02-25T07:32:52.539Z,10.97
2019-02-25T07:33:52.562Z,10.67
2019-02-25T07:34:52.527Z,10.56
2019-02-25T07:35:52.515Z,10.34
2019-02-25T07:36:52.505Z,10.30
2019-02-25T07:37:52.478Z,10.29
2019-02-25T07:38:52.463Z,10.51
2019-02-25T07:39:52.529Z,10.45
2019-02-25T07:40:52.446Z,10.55
2019-02-25T07:41:52.431Z,10.63
2019-02-25T07:42:52.509Z,10.81
2019-02-25T07:43:52.424Z,10.85
2019-02-25T07:44:52.408Z,10.79
2019-02-25T07:45:52.404Z,10.52
2019-02-25T07:46:52.384Z,9.86
2019-02-25T07:47:52.409Z,9.43
2019-02-25T07:48:52.358Z,9.74
2019-02-25T07:49:52.380Z,9.84
2019-02-25T07:50:52.333Z,10.02
2019-02-25T07:51:52.338Z,10.27
2019-02-25T07:52:52.314Z,10.34
2019-02-25T07:53:52.320Z,10.34
2019-02-25T07:54:52.308Z,10.56
2019-02-25T07:55:52.321Z,10.73
2019-02-25T07:56:52.271Z,10.84
2019-02-25T07:57:52.257Z,10.92
2019-02-25T07:58:52.334Z,11.03
2019-02-25T07:59:52.256Z,10.97
2019-02-25T08:00:52.226Z,11.06
2019-02-25T08:01:52.212Z,11.07
2019-02-25T08:02:52.214Z,11.06
2019-02-25T08:03:52.189Z,11.17
2019-02-25T08:04:52.178Z,11.43
2019-02-25T08:05:52.178Z,11.36
2019-02-25T08:06:52.171Z,11.52
2019-02-25T08:07:52.162Z,11.65
2019-02-25T08:08:52.145Z,11.86
2019-02-25T08:09:52.134Z,11.98
2019-02-25T08:10:52.109Z,12.10
2019-02-25T08:11:52.129Z,12.29
2019-02-25T08:12:52.120Z,12.47
2019-02-25T08:13:52.094Z,12.68
2019-02-25T08:14:52.131Z,12.89
2019-02-25T08:15:52.056Z,13.07
2019-02-25T08:16:52.049Z,13.36
2019-02-25T08:17:52.046Z,13.59
2019-02-25T08:18:52.038Z,13.78
2019-02-25T08:19:52.225Z,14.07
2019-02-25T08:20:52.025Z,14.07
2019-02-25T08:21:52.064Z,14.18
2019-02-25T08:22:51.979Z,13.60
2019-02-25T08:23:51.980Z,13.38
2019-02-25T08:24:51.961Z,13.57
2019-02-25T08:25:52.129Z,13.73
2019-02-25T08:26:51.960Z,14.15
2019-02-25T08:27:51.977Z,14.17
2019-02-25T08:28:51.929Z,14.68
2019-02-25T08:29:51.965Z,15.29
2019-02-25T08:30:51.903Z,14.89
2019-02-25T08:31:51.915Z,14.47
2019-02-25T08:32:51.902Z,14.75
2019-02-25T08:33:51.865Z,14.91
2019-02-25T08:34:51.865Z,15.28
2019-02-25T08:35:51.852Z,15.49
2019-02-25T08:36:51.851Z,15.17
2019-02-25T08:37:51.868Z,14.88
2019-02-25T08:38:51.829Z,14.98
2019-02-25T08:39:51.848Z,15.02
2019-02-25T08:40:51.797Z,14.89
2019-02-25T08:41:51.801Z,14.55
2019-02-25T08:42:51.804Z,14.39
2019-02-25T08:43:51.779Z,14.10
2019-02-25T08:44:51.793Z,13.78
2019-02-25T08:45:51.744Z,13.70
2019-02-25T08:46:51.749Z,13.63
2019-02-25T08:47:51.750Z,13.85
2019-02-25T08:48:51.709Z,13.55
2019-02-25T08:49:51.726Z,13.78
2019-02-25T08:50:51.717Z,13.85
2019-02-25T08:51:51.683Z,14.35
2019-02-25T08:52:51.667Z,14.14
2019-02-25T08:53:51.659Z,13.92
2019-02-25T08:54:51.673Z,13.52
2019-02-25T08:55:51.643Z,13.04
2019-02-25T08:56:51.626Z,12.90
2019-02-25T08:57:51.786Z,12.92
2019-02-25T08:58:51.641Z,13.25
2019-02-25T08:59:51.591Z,13.28
2019-02-25T09:00:51.595Z,13.14
2019-02-25T09:01:51.601Z,13.12
2019-02-25T09:02:51.567Z,13.07
2019-02-25T09:03:51.566Z,12.72
2019-02-25T09:04:51.536Z,12.82
2019-02-25T09:05:51.555Z,12.52
2019-02-25T09:06:51.530Z,12.39
2019-02-25T09:07:51.499Z,12.41
2019-02-25T09:08:51.489Z,12.39
2019-02-25T09:09:51.485Z,12.90
2019-02-25T09:10:51.562Z,13.04
2019-02-25T09:11:51.478Z,13.07
2019-02-25T09:12:51.463Z,13.11
2019-02-25T09:13:51.437Z,12.97
2019-02-25T09:14:51.442Z,12.97
2019-02-25T09:15:51.422Z,13.44
2019-02-25T09:16:51.405Z,13.81
2019-02-25T09:17:51.405Z,13.45
2019-02-25T09:18:51.385Z,13.39
2019-02-25T09:19:51.375Z,13.44
2019-02-25T09:20:51.419Z,13.23
2019-02-25T09:21:51.368Z,13.10
2019-02-25T09:22:51.343Z,13.04
2019-02-25T09:23:51.331Z,13.07
2019-02-25T09:24:51.317Z,13.11
2019-02-25T09:25:51.312Z,13.12
2019-02-25T09:26:51.321Z,13.39
2019-02-25T09:27:51.293Z,13.52
2019-02-25T09:28:51.271Z,13.36
2019-02-25T09:29:51.265Z,13.45
2019-02-25T09:30:51.254Z,13.44
2019-02-25T09:31:51.243Z,13.49
2019-02-25T09:32:51.255Z,13.48
2019-02-25T09:33:51.223Z,13.22
2019-02-25T09:34:51.213Z,12.96
2019-02-25T09:35:51.207Z,12.82
2019-02-25T09:36:51.186Z,12.92
2019-02-25T09:37:51.188Z,12.86
2019-02-25T09:38:51.184Z,12.87
2019-02-25T09:39:52.009Z,12.89
2019-02-25T09:40:51.153Z,12.97
2019-02-25T09:41:51.135Z,12.62
2019-02-25T09:42:51.123Z,12.23
2019-02-25T09:43:51.128Z,12.35
2019-02-25T09:44:51.124Z,12.57
2019-02-25T09:45:51.086Z,12.71
2019-02-25T09:46:51.071Z,12.93
2019-02-25T09:47:51.069Z,13.00
2019-02-25T09:48:51.069Z,13.17
2019-02-25T09:49:51.167Z,13.44
2019-02-25T09:50:51.042Z,13.51
2019-02-25T09:51:51.022Z,13.62
2019-02-25T09:52:51.010Z,13.75
2019-02-25T09:53:51.012Z,13.95
2019-02-25T09:54:50.996Z,14.15
2019-02-25T09:55:50.980Z,14.03
2019-02-25T09:56:51.022Z,14.02
2019-02-25T09:57:50.959Z,14.12
2019-02-25T09:58:51.974Z,14.03
2019-02-25T09:59:50.943Z,13.95
2019-02-25T10:00:50.931Z,14.10
2019-02-25T10:01:50.912Z,14.10
2019-02-25T10:02:50.976Z,14.07
2019-02-25T10:03:50.885Z,14.07
2019-02-25T10:04:50.872Z,13.97
2019-02-25T10:05:50.881Z,14.00
2019-02-25T10:06:50.856Z,13.89
2019-02-25T10:07:50.845Z,13.92
2019-02-25T10:08:50.852Z,13.79
2019-02-25T10:09:50.833Z,13.95
2019-02-25T10:10:50.803Z,14.06
2019-02-25T10:11:50.792Z,14.22
2019-02-25T10:12:50.782Z,14.22
2019-02-25T10:13:51.944Z,14.27
2019-02-25T10:14:50.795Z,14.39
2019-02-25T10:15:50.754Z,14.51
2019-02-25T10:16:50.739Z,14.55
2019-02-25T10:17:50.730Z,14.29
2019-02-25T10:18:50.713Z,14.21
2019-02-25T10:19:50.710Z,14.45
2019-02-25T10:20:50.742Z,14.47
2019-02-25T10:21:50.680Z,14.28
2019-02-25T10:22:50.667Z,14.37
2019-02-25T10:23:50.656Z,14.43
2019-02-25T10:24:50.660Z,14.61
2019-02-25T10:25:50.652Z,14.73
2019-02-25T10:26:50.654Z,15.09
2019-02-25T10:27:50.626Z,15.20
2019-02-25T10:28:50.609Z,15.34
2019-02-25T10:29:50.612Z,15.50
2019-02-25T10:30:53.074Z,15.54
2019-02-25T10:31:50.573Z,15.68
2019-02-25T10:32:50.584Z,15.65
2019-02-25T10:33:50.901Z,15.75
2019-02-25T10:34:50.546Z,15.67
2019-02-25T10:35:50.527Z,15.44
2019-02-25T10:36:52.342Z,15.44
2019-02-25T10:37:50.511Z,15.44
2019-02-25T10:38:50.523Z,15.57
2019-02-25T10:39:51.491Z,15.59
2019-02-25T10:40:52.121Z,15.67
2019-02-25T10:41:51.169Z,15.78
2019-02-25T10:42:50.487Z,15.76
2019-02-25T10:43:50.444Z,15.76
2019-02-25T10:44:50.449Z,15.67
2019-02-25T10:45:50.425Z,15.69
2019-02-25T10:46:50.421Z,15.72
2019-02-25T10:47:51.665Z,15.84
2019-02-25T10:48:54.138Z,15.86
2019-02-25T10:49:50.393Z,15.93
2019-02-25T10:50:56.089Z,15.97
2019-02-25T10:51:51.403Z,15.97
2019-02-25T10:52:50.356Z,16.08
2019-02-25T10:53:51.544Z,16.11
2019-02-25T10:54:51.983Z,16.21
2019-02-25T10:55:50.948Z,16.20
2019-02-25T10:56:51.643Z,16.25
2019-02-25T10:57:50.302Z,16.01
2019-02-25T10:58:50.303Z,16.04
2019-02-25T10:59:50.277Z,15.93
2019-02-25T11:00:50.262Z,15.87
2019-02-25T11:01:50.245Z,15.86
2019-02-25T11:02:51.180Z,15.68
2019-02-25T11:03:52.041Z,15.67
2019-02-25T11:04:51.430Z,15.75
2019-02-25T11:05:51.763Z,15.43
2019-02-25T11:06:50.210Z,15.47
2019-02-25T11:07:50.177Z,15.43
2019-02-25T11:08:50.172Z,15.51
2019-02-25T11:09:50.471Z,15.64
2019-02-25T11:10:50.860Z,15.54
2019-02-25T11:11:50.690Z,15.56
2019-02-25T11:12:50.135Z,15.76
2019-02-25T11:13:50.114Z,15.97
2019-02-25T11:14:50.102Z,15.94
2019-02-25T11:15:50.102Z,16.02
2019-02-25T11:16:51.787Z,15.94
2019-02-25T11:17:51.683Z,16.07
2019-02-25T11:18:52.222Z,15.94
2019-02-25T11:19:50.054Z,16.00
2019-02-25T11:20:50.065Z,15.97
2019-02-25T11:21:50.027Z,16.20
2019-02-25T11:22:50.055Z,16.12
2019-02-25T11:23:51.688Z,16.30
2019-02-25T11:24:51.821Z,16.23
2019-02-25T11:25:51.482Z,16.24
2019-02-25T11:26:49.972Z,15.94
2019-02-25T11:27:49.974Z,15.92
2019-02-25T11:28:49.994Z,15.93
2019-02-25T11:29:49.945Z,15.93
2019-02-25T11:30:51.492Z,16.05
2019-02-25T11:31:51.505Z,16.07
2019-02-25T11:32:51.688Z,16.20
2019-02-25T11:33:49.902Z,16.15
2019-02-25T11:34:49.907Z,16.15
2019-02-25T11:35:49.881Z,16.12
2019-02-25T11:36:50.824Z,16.08
2019-02-25T11:37:51.837Z,16.23
2019-02-25T11:38:49.861Z,16.17
2019-02-25T11:39:49.830Z,16.25
2019-02-25T11:40:49.845Z,16.17
2019-02-25T11:41:49.814Z,16.23
2019-02-25T11:42:49.811Z,16.30
2019-02-25T11:43:50.942Z,16.17
2019-02-25T11:44:51.787Z,16.11
2019-02-25T11:45:49.767Z,16.01
2019-02-25T11:46:49.770Z,16.01
2019-02-25T11:47:49.751Z,15.97
2019-02-25T11:48:49.747Z,15.97
2019-02-25T11:49:50.848Z,15.94
2019-02-25T11:50:49.711Z,15.97
2019-02-25T11:51:49.698Z,15.93
2019-02-25T11:52:49.748Z,16.08
2019-02-25T11:53:49.687Z,16.00
2019-02-25T11:54:49.701Z,15.96
2019-02-25T11:55:49.664Z,16.05
2019-02-25T11:56:49.653Z,15.92
2019-02-25T11:57:49.640Z,15.94
2019-02-25T11:58:49.652Z,15.93
2019-02-25T11:59:49.619Z,15.90
2019-02-25T12:00:49.618Z,15.96
2019-02-25T12:01:49.591Z,15.94
2019-02-25T12:02:49.580Z,15.92
2019-02-25T12:03:49.570Z,15.94
2019-02-25T12:04:49.597Z,15.92
2019-02-25T12:05:49.563Z,15.96
2019-02-25T12:06:49.543Z,16.05
2019-02-25T12:07:49.532Z,16.14
2019-02-25T12:08:49.520Z,15.90
2019-02-25T12:09:49.504Z,15.83
2019-02-25T12:10:49.578Z,15.89
2019-02-25T12:11:49.526Z,15.87
2019-02-25T12:12:49.477Z,15.75
2019-02-25T12:13:49.461Z,15.71
2019-02-25T12:14:49.446Z,15.64
2019-02-25T12:15:49.435Z,15.69
2019-02-25T12:16:49.456Z,15.60
2019-02-25T12:17:49.422Z,15.67
2019-02-25T12:18:49.407Z,15.53
2019-02-25T12:19:49.396Z,15.56
2019-02-25T12:20:49.389Z,15.54
2019-02-25T12:21:49.383Z,15.62
2019-02-25T12:22:49.417Z,15.54
2019-02-25T12:23:49.349Z,15.71
2019-02-25T12:24:49.346Z,15.84
2019-02-25T12:25:49.336Z,15.86
2019-02-25T12:26:49.339Z,15.92
2019-02-25T12:27:49.317Z,15.89
2019-02-25T12:28:49.309Z,16.00
2019-02-25T12:29:49.288Z,15.93
2019-02-25T12:30:49.282Z,15.96
2019-02-25T12:31:49.262Z,15.93
2019-02-25T12:32:49.259Z,15.94
2019-02-25T12:33:49.241Z,15.97
2019-02-25T12:34:49.263Z,15.96
2019-02-25T12:35:49.212Z,15.97
2019-02-25T12:36:49.210Z,16.02
2019-02-25T12:37:49.205Z,16.07
2019-02-25T12:38:49.185Z,16.08
2019-02-25T12:39:49.173Z,16.23
2019-02-25T12:40:49.169Z,16.23
2019-02-25T12:41:49.170Z,16.30
2019-02-25T12:42:49.144Z,16.24
2019-02-25T12:43:49.148Z,16.14
2019-02-25T12:44:49.126Z,16.23
2019-02-25T12:45:49.101Z,16.27
2019-02-25T12:46:49.099Z,16.20
2019-02-25T12:47:49.074Z,16.25
2019-02-25T12:48:49.085Z,16.25
2019-02-25T12:49:49.057Z,16.30
2019-02-25T12:50:49.049Z,16.34
2019-02-25T12:51:49.057Z,16.30
2019-02-25T12:52:49.572Z,16.27
2019-02-25T12:53:49.010Z,16.38
2019-02-25T12:54:48.994Z,16.46
2019-02-25T12:55:48.999Z,16.48
2019-02-25T12:56:49.016Z,16.48
2019-02-25T12:57:48.982Z,16.41
2019-02-25T12:58:48.967Z,16.48
2019-02-25T12:59:48.939Z,16.49
2019-02-25T13:00:48.943Z,16.50
2019-02-25T13:01:48.923Z,16.56
2019-02-25T13:02:48.952Z,16.57
2019-02-25T13:03:48.916Z,16.57
2019-02-25T13:04:48.886Z,16.67
2019-02-25T13:05:48.870Z,16.57
2019-02-25T13:06:48.865Z,16.60
2019-02-25T13:07:48.844Z,16.58